Time;durP1;ratioP1;P1;durP2;ratioP2;P2;SDS_P1;SDS_P2;PMS_P1;PMS_P2;Temp;Humidity;BMP_temperature;BMP_pressure;BME280_temperature;BME280_humidity;BME280_pressure;Samples;Min_cycle;Max_cycle;Signal;HPM_P1;HPM_P2
2024/01/30 00:02:18;;;;;;;10.40;4.40;;;;;;;;;;5072940;28;20028;-59
2024/01/30 00:04:44;;;;;;;9.90;5.25;;;;;;;;;;5070778;28;20024;-59
2024/01/30 00:07:10;;;;;;;11.95;6.30;;;;;;;;;;5073844;28;20494;-58
2024/01/30 00:09:36;;;;;;;10.77;4.88;;;;;;;;;;5069079;28;20016;-60
2024/01/30 00:12:02;;;;;;;9.68;5.13;;;;;;;;;;5074005;28;20033;-59
2024/01/30 00:14:28;;;;;;;10.00;5.03;;;;;;;;;;5065457;28;20048;-60
2024/01/30 00:16:54;;;;;;;10.90;5.03;;;;;;;;;;5073754;28;20714;-59
2024/01/30 00:19:20;;;;;;;12.55;5.38;;;;;;;;;;5068166;28;20371;-59
2024/01/30 00:21:46;;;;;;;10.68;5.35;;;;;;;;;;5065760;28;20368;-59
2024/01/30 00:24:12;;;;;;;11.25;5.13;;;;;;;;;;5073511;28;20020;-58
2024/01/30 00:26:38;;;;;;;9.48;4.53;;;;;;;;;;5056994;28;20394;-61
2024/01/30 00:29:04;;;;;;;11.73;5.03;;;;;;;;;;5036375;28;20387;-61
2024/01/30 00:31:30;;;;;;;9.98;5.10;;;;;;;;;;5069258;28;20421;-61
2024/01/30 00:33:56;;;;;;;13.00;5.60;;;;;;;;;;5073655;28;20016;-60
2024/01/30 00:36:22;;;;;;;9.32;4.85;;;;;;;;;;5061333;28;20139;-61
2024/01/30 00:38:48;;;;;;;8.70;4.90;;;;;;;;;;5061492;28;20032;-60
2024/01/30 00:41:14;;;;;;;8.73;4.00;;;;;;;;;;5071828;28;20035;-61
2024/01/30 00:43:40;;;;;;;12.23;5.38;;;;;;;;;;5071870;28;20028;-60
2024/01/30 00:46:06;;;;;;;16.40;5.72;;;;;;;;;;5063018;28;20372;-59
2024/01/30 00:48:32;;;;;;;10.23;5.00;;;;;;;;;;5073843;28;20141;-61
2024/01/30 00:50:58;;;;;;;8.98;5.50;;;;;;;;;;5066995;28;20494;-61
2024/01/30 00:53:24;;;;;;;14.63;5.95;;;;;;;;;;5069355;28;20418;-61
2024/01/30 00:55:50;;;;;;;13.18;4.72;;;;;;;;;;5065883;28;20410;-61
2024/01/30 00:58:16;;;;;;;10.25;5.13;;;;;;;;;;5054763;28;20087;-60
2024/01/30 01:00:42;;;;;;;12.88;5.75;;;;;;;;;;5070855;28;20021;-61
2024/01/30 01:03:08;;;;;;;11.65;5.13;;;;;;;;;;5059947;28;20081;-61
2024/01/30 01:05:34;;;;;;;12.57;6.22;;;;;;;;;;5066761;28;20056;-61
2024/01/30 01:08:00;;;;;;;11.00;4.93;;;;;;;;;;5054808;28;20535;-60
2024/01/30 01:10:27;;;;;;;10.10;4.88;;;;;;;;;;5067625;28;20474;-60
2024/01/30 01:12:53;;;;;;;10.07;4.85;;;;;;;;;;5070856;28;20489;-61
2024/01/30 01:15:19;;;;;;;12.35;4.85;;;;;;;;;;5067943;28;20044;-61
2024/01/30 01:17:45;;;;;;;12.60;5.05;;;;;;;;;;5062022;28;20082;-61
2024/01/30 01:20:11;;;;;;;12.20;5.63;;;;;;;;;;5073009;28;20028;-60
2024/01/30 01:22:41;;;;;;;11.05;5.38;;;;;;;;;;5067082;28;20029;-61
2024/01/30 01:25:08;;;;;;;9.68;5.30;;;;;;;;;;5071368;28;20047;-60
2024/01/30 01:27:34;;;;;;;11.73;5.20;;;;;;;;;;5059479;28;20057;-59
2024/01/30 01:30:00;;;;;;;10.32;5.30;;;;;;;;;;5052854;28;20033;-59
2024/01/30 01:32:26;;;;;;;14.32;5.80;;;;;;;;;;5059680;28;20056;-59
2024/01/30 01:34:52;;;;;;;10.00;4.88;;;;;;;;;;5065812;28;20097;-59
2024/01/30 01:37:18;;;;;;;12.35;5.13;;;;;;;;;;5071873;28;20028;-66
2024/01/30 01:39:44;;;;;;;10.68;6.03;;;;;;;;;;5068058;28;20189;-67
2024/01/30 01:42:10;;;;;;;12.32;5.85;;;;;;;;;;5067993;28;20112;-65
2024/01/30 01:44:36;;;;;;;11.05;5.38;;;;;;;;;;5072154;28;20036;-66
2024/01/30 01:47:02;;;;;;;9.43;5.10;;;;;;;;;;5070873;28;20017;-66
2024/01/30 01:49:28;;;;;;;10.77;5.45;;;;;;;;;;5064693;28;20551;-66
2024/01/30 01:51:55;;;;;;;9.98;5.50;;;;;;;;;;5059089;28;20033;-67
2024/01/30 01:54:21;;;;;;;15.20;6.35;;;;;;;;;;5053908;28;20029;-66
2024/01/30 01:56:47;;;;;;;10.93;5.30;;;;;;;;;;5069972;28;20103;-66
2024/01/30 01:59:13;;;;;;;9.60;5.30;;;;;;;;;;5056266;28;20112;-65
2024/01/30 02:01:43;;;;;;;10.20;5.25;;;;;;;;;;5054316;28;20035;-67
2024/01/30 02:04:09;;;;;;;13.80;5.70;;;;;;;;;;5069565;28;20029;-67
2024/01/30 02:06:35;;;;;;;11.88;5.40;;;;;;;;;;5069870;28;20055;-63
2024/01/30 02:09:01;;;;;;;13.77;6.82;;;;;;;;;;5070732;28;20401;-66
2024/01/30 02:11:28;;;;;;;11.02;4.80;;;;;;;;;;5066318;28;20034;-65
2024/01/30 02:13:54;;;;;;;11.48;5.38;;;;;;;;;;5067393;28;20496;-68
2024/01/30 02:16:20;;;;;;;9.90;5.32;;;;;;;;;;5069793;28;20029;-67
2024/01/30 02:18:47;;;;;;;11.48;5.57;;;;;;;;;;5066124;28;20031;-66
2024/01/30 02:21:15;;;;;;;10.73;5.38;;;;;;;;;;5054235;28;20025;-67
2024/01/30 02:23:41;;;;;;;11.27;4.93;;;;;;;;;;5071294;28;20028;-66
2024/01/30 02:26:07;;;;;;;13.43;5.45;;;;;;;;;;5065003;28;20028;-66
2024/01/30 02:28:33;;;;;;;10.07;5.57;;;;;;;;;;5066330;28;20425;-65
2024/01/30 02:30:59;;;;;;;11.48;5.10;;;;;;;;;;5071108;28;20040;-67
2024/01/30 02:33:25;;;;;;;11.88;5.45;;;;;;;;;;5064293;28;20024;-67
2024/01/30 02:35:51;;;;;;;11.80;5.97;;;;;;;;;;5061133;28;20024;-57
2024/01/30 02:38:17;;;;;;;10.55;5.30;;;;;;;;;;5069761;28;20029;-58
2024/01/30 02:40:43;;;;;;;10.88;6.25;;;;;;;;;;5059923;28;20029;-57
2024/01/30 02:43:09;;;;;;;11.80;5.93;;;;;;;;;;5058012;28;21471;-57
2024/01/30 02:45:35;;;;;;;11.07;5.35;;;;;;;;;;5067369;28;20029;-58
2024/01/30 02:48:01;;;;;;;12.05;5.53;;;;;;;;;;5041718;28;20029;-59
2024/01/30 02:50:27;;;;;;;11.77;5.20;;;;;;;;;;5063903;28;20107;-58
2024/01/30 02:52:52;;;;;;;10.45;5.75;;;;;;;;;;5071296;28;20028;-59
2024/01/30 02:55:19;;;;;;;12.13;5.18;;;;;;;;;;5069728;28;20028;-59
2024/01/30 02:57:45;;;;;;;12.43;5.13;;;;;;;;;;5066815;28;20455;-58
2024/01/30 03:00:11;;;;;;;13.25;6.00;;;;;;;;;;5071519;28;20029;-58
2024/01/30 03:02:37;;;;;;;9.35;5.05;;;;;;;;;;5062197;28;20024;-59
2024/01/30 03:05:03;;;;;;;11.40;5.05;;;;;;;;;;5070427;28;20056;-59
2024/01/30 03:07:30;;;;;;;13.13;5.32;;;;;;;;;;5060962;28;20427;-59
2024/01/30 03:09:56;;;;;;;13.98;5.25;;;;;;;;;;5060249;28;20024;-58
2024/01/30 03:12:22;;;;;;;13.63;5.72;;;;;;;;;;5069097;28;20029;-59
2024/01/30 03:14:49;;;;;;;11.45;5.28;;;;;;;;;;5074538;28;20049;-59
2024/01/30 03:17:15;;;;;;;10.77;5.05;;;;;;;;;;5074190;28;20492;-59
2024/01/30 03:19:41;;;;;;;12.05;5.40;;;;;;;;;;5066740;28;20029;-58
2024/01/30 03:22:07;;;;;;;14.77;5.53;;;;;;;;;;5070027;28;20533;-58
2024/01/30 03:24:33;;;;;;;13.82;5.30;;;;;;;;;;5066357;28;20111;-58
2024/01/30 03:26:59;;;;;;;12.60;5.65;;;;;;;;;;5072937;28;20430;-59
2024/01/30 03:29:25;;;;;;;11.60;5.68;;;;;;;;;;5056645;28;20033;-60
2024/01/30 03:31:51;;;;;;;10.15;5.47;;;;;;;;;;5074792;28;20036;-59
2024/01/30 03:34:17;;;;;;;9.68;5.10;;;;;;;;;;5073498;28;20371;-59
2024/01/30 03:36:43;;;;;;;12.32;4.95;;;;;;;;;;5063082;28;20399;-58
2024/01/30 03:39:09;;;;;;;12.75;5.45;;;;;;;;;;5073569;28;20052;-59
2024/01/30 03:41:35;;;;;;;11.02;5.97;;;;;;;;;;5074995;28;20029;-59
2024/01/30 03:44:01;;;;;;;11.98;5.63;;;;;;;;;;5060776;28;20033;-59
2024/01/30 03:46:27;;;;;;;12.25;5.30;;;;;;;;;;5055167;28;20033;-65
2024/01/30 03:48:53;;;;;;;13.77;6.05;;;;;;;;;;5063587;28;20033;-67
2024/01/30 03:51:19;;;;;;;15.80;5.40;;;;;;;;;;5062067;28;20522;-67
2024/01/30 03:53:48;;;;;;;14.48;6.18;;;;;;;;;;5073033;28;20047;-66
2024/01/30 03:56:14;;;;;;;10.63;5.25;;;;;;;;;;5069888;28;20033;-59
2024/01/30 03:58:40;;;;;;;9.73;5.35;;;;;;;;;;5072945;28;20025;-59
2024/01/30 04:01:06;;;;;;;14.70;5.68;;;;;;;;;;5074263;28;20036;-58
2024/01/30 04:03:32;;;;;;;9.30;4.80;;;;;;;;;;5062220;28;20540;-59
2024/01/30 04:05:58;;;;;;;10.75;5.40;;;;;;;;;;5066868;28;20074;-58
2024/01/30 04:08:24;;;;;;;12.10;5.22;;;;;;;;;;5073870;28;20497;-59
2024/01/30 04:10:50;;;;;;;10.68;5.20;;;;;;;;;;5060990;28;20068;-59
2024/01/30 04:13:16;;;;;;;14.55;6.78;;;;;;;;;;5072233;28;20025;-59
2024/01/30 04:15:42;;;;;;;12.57;5.82;;;;;;;;;;5064595;28;20033;-59
2024/01/30 04:18:08;;;;;;;12.98;5.78;;;;;;;;;;5073552;28;20129;-59
2024/01/30 04:20:34;;;;;;;11.32;5.88;;;;;;;;;;5070283;28;20048;-59
2024/01/30 04:23:00;;;;;;;9.90;5.28;;;;;;;;;;5068342;28;20032;-59
2024/01/30 04:25:26;;;;;;;9.45;5.25;;;;;;;;;;5055404;28;20024;-58
2024/01/30 04:27:52;;;;;;;11.82;5.38;;;;;;;;;;5070338;28;20492;-59
2024/01/30 04:30:18;;;;;;;12.32;6.10;;;;;;;;;;5073371;28;20032;-60
2024/01/30 04:32:44;;;;;;;14.45;5.80;;;;;;;;;;5073801;28;20052;-59
2024/01/30 04:35:10;;;;;;;10.10;6.10;;;;;;;;;;5072545;28;20088;-58
2024/01/30 04:37:36;;;;;;;12.65;6.10;;;;;;;;;;5065337;28;20104;-59
2024/01/30 04:40:03;;;;;;;11.23;6.20;;;;;;;;;;5056892;28;20033;-59
2024/01/30 04:42:29;;;;;;;13.55;5.97;;;;;;;;;;5069110;28;20017;-58
2024/01/30 04:44:55;;;;;;;11.40;5.85;;;;;;;;;;5071316;28;20074;-59
2024/01/30 04:47:21;;;;;;;14.25;6.30;;;;;;;;;;5066710;28;20017;-59
2024/01/30 04:49:47;;;;;;;10.68;5.70;;;;;;;;;;5062867;28;20029;-59
2024/01/30 04:52:13;;;;;;;14.13;6.30;;;;;;;;;;5068965;28;20025;-59
2024/01/30 04:54:39;;;;;;;11.40;5.68;;;;;;;;;;5067908;28;20025;-59
2024/01/30 04:57:09;;;;;;;10.32;5.55;;;;;;;;;;5065454;28;20021;-59
2024/01/30 04:59:36;;;;;;;10.32;5.35;;;;;;;;;;5073238;28;20040;-60
2024/01/30 05:02:02;;;;;;;11.80;4.80;;;;;;;;;;5070166;28;20137;-59
2024/01/30 05:04:28;;;;;;;12.77;5.60;;;;;;;;;;5060723;28;20044;-59
2024/01/30 05:06:54;;;;;;;12.88;5.75;;;;;;;;;;5072513;28;20094;-57
2024/01/30 05:09:20;;;;;;;11.88;5.25;;;;;;;;;;5053951;28;20033;-56
2024/01/30 05:11:46;;;;;;;12.23;6.18;;;;;;;;;;5068307;28;20047;-56
2024/01/30 05:14:14;;;;;;;11.77;5.80;;;;;;;;;;5071298;28;20496;-57
2024/01/30 05:16:41;;;;;;;12.93;5.22;;;;;;;;;;5071799;28;20482;-57
2024/01/30 05:19:07;;;;;;;13.52;5.65;;;;;;;;;;5064946;28;20020;-57
2024/01/30 05:21:33;;;;;;;11.40;5.70;;;;;;;;;;5070910;28;20433;-56
2024/01/30 05:23:59;;;;;;;10.25;5.43;;;;;;;;;;5072541;28;20079;-57
2024/01/30 05:26:25;;;;;;;11.90;5.47;;;;;;;;;;5047472;28;20538;-57
2024/01/30 05:28:51;;;;;;;9.75;6.18;;;;;;;;;;5071741;28;20610;-57
2024/01/30 05:31:17;;;;;;;14.90;6.93;;;;;;;;;;5072712;28;20024;-58
2024/01/30 05:33:43;;;;;;;22.38;7.80;;;;;;;;;;5071756;28;20033;-54
2024/01/30 05:36:12;;;;;;;21.23;9.38;;;;;;;;;;5070503;28;20036;-57
2024/01/30 05:38:38;;;;;;;19.98;8.82;;;;;;;;;;5071138;28;20028;-57
2024/01/30 05:41:04;;;;;;;16.15;6.75;;;;;;;;;;5070527;28;20477;-58
2024/01/30 05:43:30;;;;;;;13.52;7.22;;;;;;;;;;5072069;28;20040;-57
2024/01/30 05:45:56;;;;;;;13.88;6.35;;;;;;;;;;5051349;28;20028;-56
2024/01/30 05:48:22;;;;;;;12.80;6.03;;;;;;;;;;5066282;28;20021;-58
2024/01/30 05:50:48;;;;;;;11.43;6.13;;;;;;;;;;5068977;28;20108;-58
2024/01/30 05:53:14;;;;;;;9.95;5.63;;;;;;;;;;5062225;28;20024;-56
2024/01/30 05:55:40;;;;;;;12.55;5.50;;;;;;;;;;5063501;28;20453;-57
2024/01/30 05:58:06;;;;;;;14.43;6.45;;;;;;;;;;5070922;28;20060;-58
2024/01/30 06:00:32;;;;;;;11.00;5.85;;;;;;;;;;5065498;28;20390;-57
2024/01/30 06:02:58;;;;;;;10.52;5.68;;;;;;;;;;5046501;28;20028;-58
2024/01/30 06:05:24;;;;;;;12.23;6.75;;;;;;;;;;5064619;28;20043;-57
2024/01/30 06:07:50;;;;;;;12.73;6.30;;;;;;;;;;5071243;28;20512;-61
2024/01/30 06:10:15;;;;;;;12.90;6.65;;;;;;;;;;5071748;28;20376;-60
2024/01/30 06:12:41;;;;;;;11.95;6.85;;;;;;;;;;5071013;28;20024;-60
2024/01/30 06:15:08;;;;;;;13.60;7.60;;;;;;;;;;5071406;28;20071;-61
2024/01/30 06:17:33;;;;;;;17.52;7.53;;;;;;;;;;5066291;28;20024;-60
2024/01/30 06:19:59;;;;;;;13.85;7.18;;;;;;;;;;5069355;28;20036;-60
2024/01/30 06:22:25;;;;;;;13.75;8.18;;;;;;;;;;5071181;28;20064;-60
2024/01/30 06:24:51;;;;;;;12.73;6.35;;;;;;;;;;5065470;28;20082;-60
2024/01/30 06:27:17;;;;;;;16.63;7.40;;;;;;;;;;5068795;28;20033;-60
2024/01/30 06:29:44;;;;;;;15.65;8.18;;;;;;;;;;5065669;28;20036;-61
2024/01/30 06:32:10;;;;;;;19.92;6.53;;;;;;;;;;5062684;28;20797;-61
2024/01/30 06:34:36;;;;;;;11.00;6.30;;;;;;;;;;5056715;28;20028;-59
2024/01/30 06:37:02;;;;;;;13.23;6.97;;;;;;;;;;5065758;28;20512;-60
2024/01/30 06:39:28;;;;;;;13.05;6.70;;;;;;;;;;5059367;28;20040;-60
2024/01/30 06:41:54;;;;;;;11.80;6.22;;;;;;;;;;5071706;28;20054;-61
2024/01/30 06:44:20;;;;;;;12.98;6.40;;;;;;;;;;5070183;28;20310;-61
2024/01/30 06:46:46;;;;;;;14.43;6.82;;;;;;;;;;5071025;28;20028;-60
2024/01/30 06:49:12;;;;;;;10.43;5.78;;;;;;;;;;5070661;28;20021;-61
2024/01/30 06:51:38;;;;;;;15.68;6.03;;;;;;;;;;5068844;28;20040;-61
2024/01/30 06:54:04;;;;;;;12.10;5.93;;;;;;;;;;5063496;28;20029;-60
2024/01/30 06:56:30;;;;;;;12.60;6.65;;;;;;;;;;5071046;28;20039;-60
2024/01/30 06:58:58;;;;;;;10.60;6.25;;;;;;;;;;5070968;28;20366;-59
2024/01/30 07:01:29;;;;;;;13.95;6.13;;;;;;;;;;5052895;28;20440;-60
2024/01/30 07:03:55;;;;;;;17.00;7.93;;;;;;;;;;5070775;28;20127;-60
2024/01/30 07:06:22;;;;;;;14.90;6.68;;;;;;;;;;5070753;28;20032;-59
2024/01/30 07:08:48;;;;;;;12.70;6.60;;;;;;;;;;5068508;28;20047;-60
2024/01/30 07:11:19;;;;;;;11.88;5.82;;;;;;;;;;5066392;28;20470;-59
2024/01/30 07:13:45;;;;;;;14.52;7.25;;;;;;;;;;5070384;28;20049;-61
2024/01/30 07:16:11;;;;;;;11.80;6.63;;;;;;;;;;5070571;28;20067;-58
2024/01/30 07:18:36;;;;;;;12.65;6.38;;;;;;;;;;5053083;28;20066;-56
2024/01/30 07:21:02;;;;;;;12.82;6.68;;;;;;;;;;5068024;28;20032;-58
2024/01/30 07:23:29;;;;;;;14.15;7.13;;;;;;;;;;5069652;28;20063;-58
2024/01/30 07:25:55;;;;;;;10.82;6.15;;;;;;;;;;5064507;28;20029;-66
2024/01/30 07:28:21;;;;;;;12.60;5.80;;;;;;;;;;5070710;28;20444;-65
2024/01/30 07:30:48;;;;;;;12.95;5.80;;;;;;;;;;5070530;28;20135;-66
2024/01/30 07:33:14;;;;;;;17.92;7.60;;;;;;;;;;5070821;28;20059;-66
2024/01/30 07:35:40;;;;;;;12.23;6.55;;;;;;;;;;5070249;28;20228;-65
2024/01/30 07:38:06;;;;;;;16.67;6.63;;;;;;;;;;5070271;28;20246;-66
2024/01/30 07:40:33;;;;;;;14.13;6.75;;;;;;;;;;5068848;28;20500;-65
2024/01/30 07:42:59;;;;;;;10.98;5.80;;;;;;;;;;5070726;28;20039;-66
2024/01/30 07:45:27;;;;;;;13.10;6.13;;;;;;;;;;5069975;28;20016;-66
2024/01/30 07:47:53;;;;;;;14.00;5.90;;;;;;;;;;5052425;28;20024;-66
2024/01/30 07:50:19;;;;;;;12.43;6.85;;;;;;;;;;5069962;28;20025;-65
2024/01/30 07:52:45;;;;;;;12.57;6.50;;;;;;;;;;5072547;28;20020;-66
2024/01/30 07:55:12;;;;;;;14.38;6.65;;;;;;;;;;5071800;28;20071;-64
2024/01/30 07:57:39;;;;;;;12.63;6.40;;;;;;;;;;5074186;28;20070;-66
2024/01/30 08:00:07;;;;;;;12.15;6.35;;;;;;;;;;5073763;28;20031;-67
2024/01/30 08:02:33;;;;;;;11.80;5.50;;;;;;;;;;5073972;28;20028;-66
2024/01/30 08:04:59;;;;;;;11.70;5.72;;;;;;;;;;5073238;28;20109;-66
2024/01/30 08:07:25;;;;;;;14.15;6.20;;;;;;;;;;5070978;28;20032;-66
2024/01/30 08:09:51;;;;;;;10.25;5.55;;;;;;;;;;5073071;28;20059;-65
2024/01/30 08:12:17;;;;;;;14.25;6.28;;;;;;;;;;5070389;28;20043;-66
2024/01/30 08:14:43;;;;;;;14.52;6.05;;;;;;;;;;5073168;28;20453;-66
2024/01/30 08:17:09;;;;;;;12.80;6.57;;;;;;;;;;5073632;28;20091;-66
2024/01/30 08:19:35;;;;;;;12.55;6.18;;;;;;;;;;5038867;28;20020;-66
2024/01/30 08:22:02;;;;;;;16.02;5.80;;;;;;;;;;5070850;28;20157;-60
2024/01/30 08:24:28;;;;;;;16.85;6.10;;;;;;;;;;5073076;28;20032;-65
2024/01/30 08:26:54;;;;;;;16.90;7.25;;;;;;;;;;5073473;28;20036;-65
2024/01/30 08:29:20;;;;;;;17.33;7.07;;;;;;;;;;5073562;28;20032;-65
2024/01/30 08:31:46;;;;;;;14.27;6.38;;;;;;;;;;5073404;28;20024;-65
2024/01/30 08:34:12;;;;;;;15.18;7.18;;;;;;;;;;5072438;28;20654;-64
2024/01/30 08:36:38;;;;;;;14.35;6.50;;;;;;;;;;5070939;28;20059;-60
2024/01/30 08:39:05;;;;;;;12.43;5.82;;;;;;;;;;5073074;28;20032;-60
2024/01/30 08:41:31;;;;;;;13.50;6.65;;;;;;;;;;5073518;28;20492;-60
2024/01/30 08:43:57;;;;;;;12.38;5.97;;;;;;;;;;5072883;28;20032;-61
2024/01/30 08:46:23;;;;;;;10.93;5.75;;;;;;;;;;5073202;28;20040;-61
2024/01/30 08:48:49;;;;;;;14.63;6.28;;;;;;;;;;5072759;28;20032;-60
2024/01/30 08:51:15;;;;;;;9.75;6.35;;;;;;;;;;5072908;28;20472;-60
2024/01/30 08:53:41;;;;;;;12.98;6.80;;;;;;;;;;5071243;28;20496;-60
2024/01/30 08:56:07;;;;;;;16.67;7.32;;;;;;;;;;5072931;28;20035;-61
2024/01/30 08:58:33;;;;;;;14.57;6.63;;;;;;;;;;5059154;28;20024;-61
2024/01/30 09:00:59;;;;;;;15.63;6.57;;;;;;;;;;5072754;28;20497;-61
2024/01/30 09:03:25;;;;;;;13.57;6.85;;;;;;;;;;5071351;28;20607;-61
2024/01/30 09:05:51;;;;;;;14.95;6.30;;;;;;;;;;5072974;28;20042;-61
2024/01/30 09:08:17;;;;;;;14.05;5.75;;;;;;;;;;5070922;28;20032;-61
2024/01/30 09:10:44;;;;;;;12.45;6.43;;;;;;;;;;5072600;28;20493;-61
2024/01/30 09:13:10;;;;;;;14.27;5.60;;;;;;;;;;5071296;28;20032;-60
2024/01/30 09:15:36;;;;;;;10.35;5.93;;;;;;;;;;5072266;28;20049;-61
2024/01/30 09:18:02;;;;;;;14.05;6.57;;;;;;;;;;5072172;28;20027;-61
2024/01/30 09:20:28;;;;;;;14.60;6.22;;;;;;;;;;5072547;28;20075;-60
2024/01/30 09:22:54;;;;;;;12.77;6.38;;;;;;;;;;5067300;28;20028;-61
2024/01/30 09:25:20;;;;;;;9.93;5.30;;;;;;;;;;5067856;28;20021;-60
2024/01/30 09:27:46;;;;;;;13.18;6.10;;;;;;;;;;5069803;28;20027;-61
2024/01/30 09:30:12;;;;;;;15.10;6.47;;;;;;;;;;5072153;28;20021;-60
2024/01/30 09:32:40;;;;;;;13.30;6.35;;;;;;;;;;5071842;28;20035;-60
2024/01/30 09:35:06;;;;;;;12.27;5.53;;;;;;;;;;5071646;28;20074;-60
2024/01/30 09:37:32;;;;;;;12.63;6.35;;;;;;;;;;5071871;28;20028;-60
2024/01/30 09:39:58;;;;;;;13.77;5.32;;;;;;;;;;5070330;28;20036;-61
2024/01/30 09:42:37;;;;;;;10.18;5.15;;;;;;;;;;5071934;28;20036;-61
2024/01/30 09:45:04;;;;;;;15.65;5.78;;;;;;;;;;5071315;28;20028;-60
2024/01/30 09:47:33;;;;;;;14.65;5.60;;;;;;;;;;5072198;28;20029;-60
2024/01/30 09:49:59;;;;;;;9.35;5.15;;;;;;;;;;5071773;28;20062;-60
2024/01/30 09:52:25;;;;;;;14.35;6.07;;;;;;;;;;5071593;28;20024;-60
2024/01/30 09:54:52;;;;;;;9.13;5.32;;;;;;;;;;5071333;28;20040;-60
2024/01/30 09:57:18;;;;;;;15.68;6.18;;;;;;;;;;5065068;28;20455;-60
2024/01/30 09:59:44;;;;;;;9.57;5.20;;;;;;;;;;5065329;28;20036;-60
2024/01/30 10:02:10;;;;;;;12.45;5.65;;;;;;;;;;5071586;28;20032;-59
2024/01/30 10:04:36;;;;;;;12.35;6.07;;;;;;;;;;5059571;28;20025;-60
2024/01/30 10:07:03;;;;;;;13.45;6.45;;;;;;;;;;5071263;28;20543;-59
2024/01/30 10:09:32;;;;;;;13.38;6.13;;;;;;;;;;5066121;28;20025;-59
2024/01/30 10:11:58;;;;;;;13.77;5.95;;;;;;;;;;5054195;28;20102;-59
2024/01/30 10:14:25;;;;;;;7.72;4.15;;;;;;;;;;5059942;28;20063;-59
2024/01/30 10:16:51;;;;;;;11.70;4.85;;;;;;;;;;5058280;28;20121;-59
2024/01/30 10:19:17;;;;;;;8.13;5.05;;;;;;;;;;5071389;28;20044;-60
2024/01/30 10:21:43;;;;;;;9.60;5.18;;;;;;;;;;5051093;28;20024;-60
2024/01/30 10:24:12;;;;;;;10.45;4.80;;;;;;;;;;5066398;28;20371;-60
2024/01/30 10:26:38;;;;;;;10.80;5.18;;;;;;;;;;5070626;28;20046;-60
2024/01/30 10:29:05;;;;;;;11.82;5.97;;;;;;;;;;5071449;28;20055;-59
2024/01/30 10:31:31;;;;;;;11.27;4.55;;;;;;;;;;5071128;28;20401;-60
2024/01/30 10:33:57;;;;;;;14.63;5.22;;;;;;;;;;5070867;28;20025;-60
2024/01/30 10:36:27;;;;;;;12.10;5.68;;;;;;;;;;5071130;28;20034;-59
2024/01/30 10:38:55;;;;;;;12.13;5.28;;;;;;;;;;5071106;28;20024;-59
2024/01/30 10:41:25;;;;;;;10.13;5.05;;;;;;;;;;5063389;28;20593;-60
2024/01/30 10:43:56;;;;;;;11.27;5.32;;;;;;;;;;5070597;28;20086;-60
2024/01/30 10:46:26;;;;;;;13.98;5.30;;;;;;;;;;5071243;28;20036;-60
2024/01/30 10:48:58;;;;;;;12.63;5.57;;;;;;;;;;5070902;28;20048;-60
2024/01/30 10:51:24;;;;;;;8.87;4.80;;;;;;;;;;5061777;28;20025;-60
2024/01/30 10:53:51;;;;;;;8.45;4.50;;;;;;;;;;5049127;28;20020;-60
2024/01/30 10:56:18;;;;;;;12.98;4.95;;;;;;;;;;5071313;28;20073;-60
2024/01/30 10:58:44;;;;;;;9.85;5.00;;;;;;;;;;5068885;28;20029;-59
2024/01/30 11:01:10;;;;;;;12.18;5.63;;;;;;;;;;5061780;28;20083;-60
2024/01/30 11:03:36;;;;;;;11.63;4.82;;;;;;;;;;5064151;28;20098;-59
2024/01/30 11:06:03;;;;;;;10.30;5.30;;;;;;;;;;5059857;28;20112;-60
2024/01/30 11:08:29;;;;;;;14.30;5.63;;;;;;;;;;5068835;28;20059;-60
2024/01/30 11:10:57;;;;;;;12.93;5.25;;;;;;;;;;5071015;28;20494;-59
2024/01/30 11:13:23;;;;;;;10.10;5.20;;;;;;;;;;5069041;28;20127;-60
2024/01/30 11:15:49;;;;;;;9.98;4.80;;;;;;;;;;5070781;28;20024;-60
2024/01/30 11:18:25;;;;;;;10.00;5.05;;;;;;;;;;5070675;28;20100;-60
2024/01/30 11:20:51;;;;;;;10.32;5.35;;;;;;;;;;5068856;28;20493;-60
2024/01/30 11:23:17;;;;;;;14.13;5.30;;;;;;;;;;5070139;28;20031;-60
2024/01/30 11:25:47;;;;;;;11.55;5.40;;;;;;;;;;5067336;28;20367;-60
2024/01/30 11:28:16;;;;;;;14.20;5.82;;;;;;;;;;5073771;28;20032;-60
2024/01/30 11:30:42;;;;;;;10.77;5.00;;;;;;;;;;5074579;28;20028;-60
2024/01/30 11:33:11;;;;;;;9.85;4.78;;;;;;;;;;5071818;28;20393;-60
2024/01/30 11:35:39;;;;;;;9.10;5.03;;;;;;;;;;5074203;28;20032;-60
2024/01/30 11:38:05;;;;;;;14.10;5.70;;;;;;;;;;5074376;28;20017;-60
2024/01/30 11:40:32;;;;;;;13.95;5.93;;;;;;;;;;5074288;28;20095;-60
2024/01/30 11:42:59;;;;;;;11.82;5.95;;;;;;;;;;5074298;28;20013;-60
2024/01/30 11:45:25;;;;;;;8.23;5.15;;;;;;;;;;5073850;28;20028;-59
2024/01/30 11:47:51;;;;;;;10.13;5.50;;;;;;;;;;5055871;28;20447;-59
2024/01/30 11:50:17;;;;;;;12.63;5.90;;;;;;;;;;5072461;28;20120;-60
2024/01/30 11:52:43;;;;;;;10.65;5.18;;;;;;;;;;5062851;28;20029;-60
2024/01/30 11:55:09;;;;;;;9.20;5.60;;;;;;;;;;5071497;28;20129;-60
2024/01/30 11:57:36;;;;;;;12.07;5.75;;;;;;;;;;5074132;28;20369;-60
2024/01/30 12:00:10;;;;;;;13.48;5.47;;;;;;;;;;5074125;28;20154;-60
2024/01/30 12:02:35;;;;;;;;;;;;;;;;;;5074183;28;20037;-59
2024/01/30 12:05:05;;;;;;;10.60;5.22;;;;;;;;;;5055359;28;19951;-59
2024/01/30 12:07:31;;;;;;;9.27;4.90;;;;;;;;;;5073935;28;20042;-60
2024/01/30 12:09:57;;;;;;;8.80;4.85;;;;;;;;;;5065665;28;20086;-60
2024/01/30 12:12:27;;;;;;;10.93;5.25;;;;;;;;;;5073112;28;20032;-60
2024/01/30 12:14:53;;;;;;;10.30;5.80;;;;;;;;;;5066495;28;20121;-60
2024/01/30 12:17:25;;;;;;;10.00;4.72;;;;;;;;;;5073955;28;20550;-60
2024/01/30 12:19:54;;;;;;;10.65;5.43;;;;;;;;;;5073447;28;20085;-59
2024/01/30 12:22:20;;;;;;;12.38;5.13;;;;;;;;;;5073498;28;20060;-60
2024/01/30 12:24:46;;;;;;;10.27;6.00;;;;;;;;;;5071107;28;20056;-60
2024/01/30 12:27:15;;;;;;;10.90;6.40;;;;;;;;;;5072722;28;20028;-60
2024/01/30 12:29:42;;;;;;;9.77;5.20;;;;;;;;;;5073242;28;20540;-60
2024/01/30 12:32:08;;;;;;;10.98;5.63;;;;;;;;;;5073444;28;20024;-60
2024/01/30 12:34:34;;;;;;;10.77;5.38;;;;;;;;;;5072998;28;20013;-60
2024/01/30 12:37:01;;;;;;;12.52;5.72;;;;;;;;;;5073426;28;20024;-59
2024/01/30 12:39:27;;;;;;;11.48;5.20;;;;;;;;;;5072935;28;20386;-60
2024/01/30 12:41:53;;;;;;;12.98;5.80;;;;;;;;;;5073192;28;20433;-60
2024/01/30 12:44:18;;;;;;;9.13;5.53;;;;;;;;;;5070922;28;20036;-60
2024/01/30 12:46:44;;;;;;;8.35;4.80;;;;;;;;;;5073149;28;20107;-60
2024/01/30 12:49:11;;;;;;;9.50;5.22;;;;;;;;;;5073268;28;20078;-59
2024/01/30 12:51:37;;;;;;;12.20;4.75;;;;;;;;;;5073245;28;20436;-60
2024/01/30 12:54:06;;;;;;;12.25;4.88;;;;;;;;;;5066340;28;20024;-60
2024/01/30 12:56:33;;;;;;;11.52;6.20;;;;;;;;;;5072823;28;20042;-60
2024/01/30 12:58:59;;;;;;;10.63;5.18;;;;;;;;;;5061123;28;20044;-60
2024/01/30 13:01:25;;;;;;;14.75;6.18;;;;;;;;;;5073092;28;20040;-60
2024/01/30 13:03:51;;;;;;;8.07;4.53;;;;;;;;;;5072564;28;20111;-59
2024/01/30 13:06:17;;;;;;;8.98;4.45;;;;;;;;;;5072757;28;20078;-60
2024/01/30 13:08:43;;;;;;;9.25;4.60;;;;;;;;;;5057595;28;20044;-60
2024/01/30 13:11:09;;;;;;;9.95;4.95;;;;;;;;;;5070520;28;20028;-60
2024/01/30 13:13:35;;;;;;;8.85;5.10;;;;;;;;;;5059134;28;20040;-60
2024/01/30 13:16:01;;;;;;;12.75;4.93;;;;;;;;;;5071895;28;20115;-60
2024/01/30 13:18:27;;;;;;;9.77;4.82;;;;;;;;;;5072788;28;20036;-60
2024/01/30 13:20:53;;;;;;;8.50;4.55;;;;;;;;;;5072042;28;20028;-60
2024/01/30 13:23:19;;;;;;;11.27;4.90;;;;;;;;;;5061082;28;20036;-61
2024/01/30 13:25:45;;;;;;;11.07;4.90;;;;;;;;;;5058117;28;20047;-59
2024/01/30 13:28:11;;;;;;;9.18;4.75;;;;;;;;;;5072562;28;20029;-60
2024/01/30 13:30:37;;;;;;;9.55;5.57;;;;;;;;;;5072071;28;20402;-60
2024/01/30 13:33:03;;;;;;;10.95;4.68;;;;;;;;;;5061813;28;20149;-60
2024/01/30 13:35:29;;;;;;;8.98;4.85;;;;;;;;;;5071747;28;20095;-60
2024/01/30 13:37:55;;;;;;;9.57;4.40;;;;;;;;;;5061922;28;20112;-61
2024/01/30 13:40:22;;;;;;;12.07;5.13;;;;;;;;;;5067085;28;20028;-60
2024/01/30 13:42:48;;;;;;;13.02;4.72;;;;;;;;;;5063834;28;20557;-60
2024/01/30 13:45:14;;;;;;;8.63;4.15;;;;;;;;;;5069705;28;20028;-60
2024/01/30 13:47:40;;;;;;;12.63;4.75;;;;;;;;;;5058264;28;20064;-60
2024/01/30 13:50:07;;;;;;;9.10;4.80;;;;;;;;;;5057768;28;20056;-60
2024/01/30 13:52:33;;;;;;;8.52;4.30;;;;;;;;;;5070525;28;20028;-60
2024/01/30 13:54:59;;;;;;;10.25;4.80;;;;;;;;;;5070729;28;20027;-61
2024/01/30 13:57:25;;;;;;;12.35;4.72;;;;;;;;;;5069147;28;20030;-60
2024/01/30 13:59:51;;;;;;;9.20;4.82;;;;;;;;;;5053655;28;20025;-60
2024/01/30 14:02:17;;;;;;;10.35;4.60;;;;;;;;;;5068184;28;20025;-60
2024/01/30 14:04:43;;;;;;;8.15;4.68;;;;;;;;;;5068387;28;20424;-60
2024/01/30 14:07:09;;;;;;;12.70;4.65;;;;;;;;;;5070916;28;20024;-60
2024/01/30 14:09:35;;;;;;;12.52;4.80;;;;;;;;;;5069274;28;20479;-61
2024/01/30 14:12:01;;;;;;;13.05;4.85;;;;;;;;;;5068268;28;20041;-60
2024/01/30 14:14:27;;;;;;;9.65;5.10;;;;;;;;;;5063099;28;20048;-60
2024/01/30 14:16:53;;;;;;;8.55;4.55;;;;;;;;;;5060787;28;20024;-60
2024/01/30 14:19:19;;;;;;;9.23;4.50;;;;;;;;;;5065420;28;20112;-61
2024/01/30 14:21:45;;;;;;;10.55;4.95;;;;;;;;;;5065862;28;20035;-60
2024/01/30 14:24:11;;;;;;;8.90;4.80;;;;;;;;;;5061700;28;20032;-61
2024/01/30 14:26:37;;;;;;;12.30;4.32;;;;;;;;;;5067511;28;20024;-59
2024/01/30 14:29:03;;;;;;;9.40;4.35;;;;;;;;;;5061566;28;20470;-58